Flight Track Log - Related Links

Times and Time Zones

All times are in EDT time to prevent confusion due to time zone crossing. See the DAL268 flight status page for this flight to view local times or setup timezone preferences in your user account.

Time Position Orientation Groundspeed Altitude Reporting Facility
EDT Latitude Longitude Course Direction KTS MPH feet Rate Location/Type
Tue 03:01:35 PM 37.6130 -122.3820 North 11 13  Level FlightAware ADS-B
Tue 03:04:27 PM 37.6140 -122.3810 38° Northeast 25 29 26 Level FlightAware ADS-B
Tue 03:04:54 PM 37.6160 -122.3800 22° Northeast 26 30 34 Level FlightAware ADS-B
Tue 03:05:18 PM 37.6170 -122.3800 360° North 28 32 36 Level FlightAware ADS-B
Tue 03:05:49 PM 37.6180 -122.3800 360° North 28 32 38 Level FlightAware ADS-B
Tue 03:06:05 PM 37.6190 -122.3800 360° North 31 36 40 Level FlightAware ADS-B
Tue 03:06:16 PM 37.6200 -122.3800 360° North 15 17 42 Level FlightAware ADS-B
Tue 03:06:32 PM 37.6200 -122.3820 270° West 18 21 43 Level FlightAware ADS-B
Tue 03:06:48 PM 37.6210 -122.3830 322° Northwest 18 21 44 Level FlightAware ADS-B
Tue 03:07:06 PM 37.6220 -122.3850 302° West 19 22 46 Level FlightAware ADS-B
Tue 03:07:44 PM 37.6230 -122.3880 293° West 20 23 48 Level FlightAware ADS-B
Tue 03:08:36 PM 37.6250 -122.3930 297° West 18 21 54 Level FlightAware ADS-B
Tue 03:09:12 PM 37.6270 -122.3960 310° West 18 21 64 Level FlightAware ADS-B
Tue 03:09:31 PM 37.6280 -122.3970 322° Northwest 32 37 73 Level FlightAware ADS-B
Tue 03:10:02 PM 37.6280 -122.3950 90° East 20 23 79 Level FlightAware ADS-B
Tue 03:10:59 PM 37.6290 -122.3930 58° Northeast 24 28 92 Level FlightAware ADS-B
Tue 03:12:28 PM 37.6280 -122.3930 180° South 9 10 129 Level FlightAware ADS-B
Tue 03:12:48 PM 37.6260 -122.3880 117° Southeast 94 108 360 Level FlightAware ADS-B
Tue 03:13:18 PM 37.6170 -122.3640 115° Southeast 175 201 300 1,552 Climbing FlightAware ADS-B
Tue 03:13:46 PM 37.6080 -122.3370 113° Southeast 187 215 1,500 2,182 Climbing FlightAware ADS-B
Tue 03:14:02 PM 37.6050 -122.3190 102° East 207 238 1,900 1,714 Climbing FlightAware ADS-B
Tue 03:14:28 PM 37.5970 -122.2860 107° East 239 275 2,700 2,000 Climbing FlightAware ADS-B
Tue 03:14:44 PM 37.5920 -122.2640 106° East 254 292 3,300 2,333 Climbing FlightAware ADS-B
Tue 03:15:04 PM 37.5850 -122.2350 107° East 265 305 4,100 2,526 Climbing FlightAware ADS-B
Tue 03:15:22 PM 37.5800 -122.2090 104° East 276 318 4,900 2,520 Climbing FlightAware ADS-B
Tue 03:15:54 PM 37.5980 -122.1640 63° Northeast 295 339 6,200 2,690 Climbing FlightAware ADS-B
Tue 03:16:20 PM 37.6280 -122.1400 32° Northeast 301 346 7,500 2,943 Climbing FlightAware ADS-B
Tue 03:16:47 PM 37.6600 -122.1140 33° Northeast 303 349 8,800 2,727 Climbing FlightAware ADS-B
Tue 03:17:15 PM 37.6950 -122.0890 29° Northeast 315 362 10,000 2,055 Climbing FlightAware ADS-B
Tue 03:18:00 PM 37.7540 -122.0470 29° Northeast 350 403 11,300 1,556 Climbing FlightAware ADS-B
Tue 03:18:36 PM 37.8110 -122.0070 29° Northeast 385 443 12,100 1,425 Climbing FlightAware ADS-B
Tue 03:19:20 PM 37.8800 -121.9580 29° Northeast 413 475 13,200 1,773 Climbing FlightAware ADS-B
Tue 03:20:04 PM 37.9530 -121.9050 30° Northeast 425 489 14,700 2,000 Climbing FlightAware ADS-B
Tue 03:20:44 PM 38.0220 -121.8550 30° Northeast 435 501 16,000 1,902 Climbing FlightAware ADS-B
Tue 03:21:26 PM 38.0970 -121.8020 29° Northeast 444 511 17,300 1,902 Climbing FlightAware ADS-B
Tue 03:22:06 PM 38.1700 -121.7490 30° Northeast 452 520 18,600 1,786 Climbing FlightAware ADS-B
Tue 03:22:50 PM 38.2500 -121.6920 29° Northeast 459 528 19,800 1,568 Climbing FlightAware ADS-B
Tue 03:23:34 PM 38.3320 -121.6320 30° Northeast 467 537 20,900 1,429 Climbing FlightAware ADS-B
Tue 03:24:14 PM 38.4080 -121.5770 30° Northeast 474 545 21,800 1,465 Climbing FlightAware ADS-B
Tue 03:25:00 PM 38.4830 -121.4870 43° Northeast 491 565 23,000 1,429 Climbing FlightAware ADS-B
Tue 03:25:38 PM 38.5330 -121.4010 53° Northeast 498 573 23,800 1,333 Climbing FlightAware ADS-B
Tue 03:26:21 PM 38.5950 -121.2930 54° Northeast 504 580 24,800 1,310 Climbing FlightAware ADS-B
Tue 03:27:05 PM 38.6570 -121.1860 53° Northeast 512 589 25,700 1,214 Climbing FlightAware ADS-B
Tue 03:27:45 PM 38.7130 -121.0870 54° Northeast 519 597 26,500 1,071 Climbing FlightAware ADS-B
Tue 03:28:29 PM 38.7760 -120.9790 53° Northeast 527 606 27,200 951 Climbing FlightAware ADS-B
Tue 03:29:07 PM 38.8320 -120.8820 53° Northeast 533 613 27,800 1,024 Climbing FlightAware ADS-B
Tue 03:29:51 PM 38.8940 -120.7740 54° Northeast 536 617 28,600 1,352 Climbing FlightAware ADS-B
Tue 03:31:29 PM 39.0400 -120.5220 53° Northeast 527 606 31,000 1,511 Climbing FlightAware ADS-B
Tue 03:32:10 PM 39.1000 -120.4180 53° Northeast 522 601 32,100 1,624 Climbing FlightAware ADS-B
Tue 03:32:54 PM 39.1620 -120.3080 54° Northeast 515 593 33,300 1,432 Climbing FlightAware ADS-B
Tue 03:33:38 PM 39.2250 -120.1990 53° Northeast 513 590 34,200 1,116 Climbing FlightAware ADS-B
Tue 03:34:20 PM 39.2830 -120.0970 54° Northeast 513 590 34,900 878 Climbing FlightAware ADS-B
Tue 03:35:00 PM 39.3400 -119.9970 54° Northeast 516 594 35,400 835 Climbing FlightAware ADS-B
Tue 03:35:39 PM 39.3940 -119.9000 54° Northeast 515 593 36,000 1,116 Climbing FlightAware ADS-B
Tue 03:36:26 PM 39.4600 -119.7830 54° Northeast 509 586 37,000 674 Climbing FlightAware ADS-B
Tue 03:37:08 PM 39.5180 -119.6800 54° Northeast 507 583 37,000  Level FlightAware ADS-B
Tue 03:37:48 PM 39.5730 -119.5820 54° Northeast 512 589 37,000  Level FlightAware ADS-B
Tue 03:38:32 PM 39.6340 -119.4730 54° Northeast 515 593 37,000  Level FlightAware ADS-B
Tue 03:39:12 PM 39.6890 -119.3730 54° Northeast 518 596 37,000  Level FlightAware ADS-B
Tue 03:39:56 PM 39.7510 -119.2610 54° Northeast 523 602 37,000  Level FlightAware ADS-B
Tue 03:40:38 PM 39.8100 -119.1540 54° Northeast 524 603 37,000  Level FlightAware ADS-B
Tue 03:41:20 PM 39.8700 -119.0450 54° Northeast 526 605 37,000  Level FlightAware ADS-B
Tue 03:42:00 PM 39.9260 -118.9430 54° Northeast 527 606 37,000  Level FlightAware ADS-B
Tue 03:42:40 PM 39.9830 -118.8380 55° Northeast 525 604 37,000  Level FlightAware ADS-B
Tue 03:43:24 PM 40.0450 -118.7260 54° Northeast 525 604 37,000  Level FlightAware ADS-B
Tue 03:44:08 PM 40.1050 -118.6130 55° Northeast 526 605 37,000  Level FlightAware ADS-B
Tue 03:44:50 PM 40.1490 -118.4910 65° Northeast 527 606 37,000  Level FlightAware ADS-B
Tue 03:45:59 PM 40.2040 -118.2940 70° East 525 604 37,000  Level FlightAware ADS-B
Tue 03:46:40 PM 40.2400 -118.1630 70° East 525 604 37,000  Level FlightAware ADS-B
Tue 03:47:22 PM 40.2730 -118.0380 71° East 523 602 37,000  Level FlightAware ADS-B
Tue 03:48:18 PM 40.3190 -117.8690 70° East 523 602 37,000  Level FlightAware ADS-B
Tue 03:48:56 PM 40.3470 -117.7630 71° East 522 601 37,000  Level FlightAware ADS-B
Tue 03:49:45 PM 40.3820 -117.6390 70° East 522 601 37,000  Level FlightAware ADS-B
Tue 03:50:22 PM 40.4080 -117.5450 70° East 522 601 37,000  Level FlightAware ADS-B
Tue 03:51:01 PM 40.4350 -117.4460 70° East 522 601 37,000  Level FlightAware ADS-B
Tue 03:51:50 PM 40.4690 -117.3220 70° East 522 601 37,000  Level FlightAware ADS-B
Tue 03:52:26 PM 40.4950 -117.2310 69° East 522 601 37,000  Level FlightAware ADS-B
Tue 03:53:27 PM 40.5370 -117.0760 70° East 522 601 37,000  Level FlightAware ADS-B
Tue 03:54:03 PM 40.5630 -116.9840 70° East 522 601 37,000  Level FlightAware ADS-B
Tue 03:54:51 PM 40.5960 -116.8620 70° East 522 601 37,000  Level FlightAware ADS-B
Tue 03:55:28 PM 40.6220 -116.7680 70° East 522 601 37,000  Level FlightAware ADS-B
Tue 03:56:14 PM 40.6550 -116.6510 70° East 522 601 37,000  Level FlightAware ADS-B
Tue 03:56:51 PM 40.6810 -116.5570 70° East 522 601 37,000  Level FlightAware ADS-B
Tue 03:57:10 PM 40.8089 -116.3070 56° Northeast 524 603 37,000  Level FlightAware ADS-B
Tue 03:58:05 PM 40.8697 -116.1490 63° Northeast 525 604 37,000  Level FlightAware ADS-B
Tue 03:58:53 PM 40.9210 -116.0140 63° Northeast 525 604 37,000  Level FlightAware ADS-B
Tue 03:59:37 PM 40.9699 -115.8860 63° Northeast 525 604 37,000  Level FlightAware ADS-B
Tue 04:00:19 PM 41.0146 -115.7680 63° Northeast 524 603 37,000  Level FlightAware ADS-B
Tue 04:00:51 PM 41.0499 -115.6750 63° Northeast 524 603 37,000  Level FlightAware ADS-B
Tue 04:02:02 PM 41.1257 -115.4730 63° Northeast 524 603 37,000  Level FlightAware ADS-B
Tue 04:02:36 PM 41.1631 -115.3730 64° Northeast 524 603 37,000  Level FlightAware ADS-B
Tue 04:03:06 PM 41.1951 -115.2870 64° Northeast 525 604 37,000  Level FlightAware ADS-B
Tue 04:03:36 PM 41.2275 -115.2000 64° Northeast 527 606 37,000  Level FlightAware ADS-B
Tue 04:04:09 PM 41.2631 -115.1040 64° Northeast 527 606 37,000  Level FlightAware ADS-B
Tue 04:04:41 PM 41.2965 -115.0140 64° Northeast 528 608 37,000  Level FlightAware ADS-B
Tue 04:05:11 PM 41.3289 -114.9260 64° Northeast 526 605 37,000  Level FlightAware ADS-B
Tue 04:06:00 PM 41.3811 -114.7830 64° Northeast 527 606 37,000  Level FlightAware ADS-B
Tue 04:06:46 PM 41.4296 -114.6500 64° Northeast 527 606 37,000  Level FlightAware ADS-B
Tue 04:07:18 PM 41.4643 -114.5550 64° Northeast 527 606 37,000  Level FlightAware ADS-B
Tue 04:07:49 PM 41.4962 -114.4670 64° Northeast 526 605 37,000  Level FlightAware ADS-B
Tue 04:08:19 PM 41.5283 -114.3780 64° Northeast 526 605 37,000  Level FlightAware ADS-B
Tue 04:08:51 PM 41.5617 -114.2850 64° Northeast 525 604 37,000  Level FlightAware ADS-B
Tue 04:09:22 PM 41.5939 -114.1950 64° Northeast 523 602 37,000  Level FlightAware ADS-B
Tue 04:09:52 PM 41.6259 -114.1060 64° Northeast 524 603 37,000  Level FlightAware ADS-B
Tue 04:10:23 PM 41.6575 -114.0180 64° Northeast 522 601 37,000  Level FlightAware ADS-B
Tue 04:11:12 PM 41.7077 -113.8760 65° Northeast 521 600 37,000  Level FlightAware ADS-B
Tue 04:11:42 PM 41.7394 -113.7860 65° Northeast 522 601 37,000  Level FlightAware ADS-B
Tue 04:12:13 PM 41.7704 -113.6990 64° Northeast 522 601 37,000  Level FlightAware ADS-B
Tue 04:12:43 PM 41.8019 -113.6090 65° Northeast 522 601 37,000  Level FlightAware ADS-B
Tue 04:13:15 PM 41.8347 -113.5160 65° Northeast 520 598 37,000  Level FlightAware ADS-B
Tue 04:14:14 PM 41.8950 -113.3440 65° Northeast 520 598 37,000  Level FlightAware ADS-B
Tue 04:14:31 PM 41.9115 -113.2950 66° East 521 600 37,000  Level FlightAware ADS-B
Tue 04:15:23 PM 41.9638 -113.1440 65° Northeast 520 598 37,000  Level FlightAware ADS-B
Tue 04:16:01 PM 42.0029 -113.0300 65° Northeast 519 597 37,000  Level FlightAware ADS-B
Tue 04:16:42 PM 42.0438 -112.9110 65° Northeast 519 597 37,000  Level FlightAware ADS-B
Tue 04:17:46 PM 42.1070 -112.7250 65° Northeast 519 597 37,000  Level FlightAware ADS-B
Tue 04:18:22 PM 42.1420 -112.6210 66° East 520 598 37,000  Level FlightAware ADS-B
Tue 04:19:10 PM 42.1890 -112.4830 65° Northeast 521 600 37,000  Level FlightAware ADS-B
Tue 04:19:56 PM 42.2370 -112.3390 66° East 524 603 37,000  Level FlightAware ADS-B
Tue 04:20:30 PM 42.2690 -112.2400 66° East 523 602 37,000  Level FlightAware ADS-B
Tue 04:20:47 PM 42.2865 -112.1870 66° East 524 603 37,000  Level FlightAware ADS-B
Tue 04:21:34 PM 42.3319 -112.0460 66° East 524 603 37,000  Level FlightAware ADS-B
Tue 04:22:05 PM 42.3617 -111.9540 66° East 526 605 37,000  Level FlightAware ADS-B
Tue 04:22:38 PM 42.3933 -111.8560 66° East 526 605 37,000  Level FlightAware ADS-B
Tue 04:23:09 PM 42.4237 -111.7620 66° East 526 605 37,000  Level FlightAware ADS-B
Tue 04:23:58 PM 42.4713 -111.6130 67° East 528 608 37,000  Level FlightAware ADS-B
Tue 04:24:29 PM 42.5010 -111.5200 67° East 528 608 37,000  Level FlightAware ADS-B
Tue 04:25:22 PM 42.5510 -111.3620 67° East 528 608 37,000  Level FlightAware ADS-B
Tue 04:26:16 PM 42.5990 -111.2120 66° East 528 608 37,000  Level FlightAware ADS-B
Tue 04:27:05 PM 42.6410 -111.0850 66° East 528 608 37,000  Level FlightAware ADS-B
Tue 04:27:41 PM 42.6710 -110.9930 66° East 528 608 37,000  Level FlightAware ADS-B
Tue 04:28:30 PM 42.7120 -110.8660 66° East 528 608 37,000  Level FlightAware ADS-B
Tue 04:29:06 PM 42.7430 -110.7730 66° East 528 608 37,000  Level FlightAware ADS-B
Tue 04:30:07 PM 42.7940 -110.6160 66° East 528 608 37,000  Level FlightAware ADS-B
Tue 04:30:50 PM 42.8300 -110.5040 66° East 528 608 37,000  Level FlightAware ADS-B
Tue 04:31:24 PM 42.8590 -110.4160 66° East 528 608 37,000  Level FlightAware ADS-B
Tue 04:32:13 PM 42.9010 -110.2900 65° Northeast 528 608 37,000  Level FlightAware ADS-B
Tue 04:32:47 PM 42.9290 -110.2010 67° East 528 608 37,000  Level FlightAware ADS-B
Tue 04:33:35 PM 42.9700 -110.0770 66° East 528 608 37,000  Level FlightAware ADS-B
Tue 04:34:14 PM 43.0030 -109.9760 66° East 528 608 37,000  Level FlightAware ADS-B
Tue 04:35:02 PM 43.0430 -109.8510 66° East 528 608 37,000  Level FlightAware ADS-B
Tue 04:35:39 PM 43.0740 -109.7550 66° East 528 608 37,000  Level FlightAware ADS-B
Tue 04:36:26 PM 43.1697 -109.3283 66° East 531 611 37,000  Level Salt Lake Center
Tue 04:37:28 PM 43.2214 -109.1483 68° East 530 610 37,000  Level Salt Lake Center
Tue 04:38:29 PM 43.2828 -108.9386 68° East 530 610 37,000  Level Salt Lake Center
Tue 04:39:31 PM 43.3339 -108.7581 69° East 530 610 37,000  Level Salt Lake Center
Tue 04:40:33 PM 43.3872 -108.5769 68° East 533 613 37,000  Level Salt Lake Center
Tue 04:41:34 PM 43.4456 -108.3661 69° East 530 610 37,000  Level Salt Lake Center
Tue 04:42:36 PM 43.4972 -108.1864 68° East 528 608 37,000  Level Salt Lake Center
Tue 04:43:38 PM 43.5603 -107.9775 67° East 528 608 37,000  Level Salt Lake Center
Tue 04:44:39 PM 43.6139 -107.7975 68° East 529 609 37,000  Level Salt Lake Center
Tue 04:45:41 PM 43.6750 -107.5867 68° East 530 610 37,000  Level Salt Lake Center
Tue 04:46:43 PM 43.7317 -107.3903 68° East 531 611 37,000  Level Salt Lake Center
Tue 04:47:44 PM 43.7844 -107.2094 68° East 530 610 37,000  Level Salt Lake Center
Tue 04:48:46 PM 43.8361 -107.0269 69° East 531 611 37,000  Level Salt Lake Center
Tue 04:49:48 PM 43.8961 -106.8150 68° East 530 610 37,000  Level Salt Lake Center
Tue 04:50:50 PM 43.9469 -106.6317 69° East 531 611 37,000  Level Salt Lake Center
Tue 04:51:51 PM 43.9986 -106.4147 72° East 530 610 37,000  Level Salt Lake Center
Tue 04:52:53 PM 44.0036 -106.2167 88° East 535 616 37,000  Level Salt Lake Center
Tue 04:53:52 PM 44.0033 -106.0172 90° East 535 616 37,000  Level Denver Center
Tue 04:54:54 PM 44.0044 -105.7861 90° East 536 617 37,000  Level Denver Center
Tue 04:55:56 PM 44.0042 -105.5897 90° East 534 615 37,000  Level Denver Center
Tue 04:56:58 PM 44.0044 -105.3594 90° East 534 615 37,000  Level Denver Center
Tue 04:58:00 PM 44.0031 -105.1633 90° East 533 613 37,000  Level Denver Center
Tue 04:59:01 PM 44.0033 -104.9669 90° East 532 612 37,000  Level Denver Center
Tue 05:00:04 PM 44.0017 -104.7383 91° East 531 611 37,000  Level Denver Center
Tue 05:01:06 PM 44.0008 -104.5428 90° East 529 609 37,000  Level Denver Center
Tue 05:02:08 PM 43.9978 -104.3158 91° East 528 608 37,000  Level Denver Center
Tue 05:03:10 PM 43.9956 -104.1297 91° East 518 596 37,000  Level Denver Center
Tue 05:04:12 PM 43.9939 -103.9053 91° East 517 595 37,000  Level Denver Center
Tue 05:05:14 PM 43.9906 -103.7139 91° East 518 596 37,000  Level Denver Center
Tue 05:06:16 PM 43.9867 -103.4917 91° East 515 593 37,000  Level Denver Center
Tue 05:07:17 PM 43.9847 -103.3022 91° East 514 592 37,000  Level Denver Center
Tue 05:08:19 PM 43.9803 -103.1139 92° East 512 589 37,000  Level Denver Center
Tue 05:09:21 PM 44.0142 -102.9011 77° East 512 589 37,000  Level Denver Center
Tue 05:10:23 PM 44.0725 -102.7342 64° Northeast 507 583 37,000  Level Denver Center
Tue 05:11:25 PM 44.1317 -102.5581 65° Northeast 504 580 37,000  Level Denver Center
Tue 05:12:27 PM 44.1997 -102.3464 66° East 500 575 37,000  Level Denver Center
Tue 05:13:29 PM 44.2483 -102.2061 64° Northeast 501 577 37,000  Level Denver Center
Tue 05:14:31 PM 44.3033 -102.0289 67° East 499 574 37,000  Level Denver Center
Tue 05:15:33 PM 44.3722 -101.8169 65° Northeast 500 575 37,000  Level Denver Center
Tue 05:16:35 PM 44.4292 -101.6414 66° East 497 572 37,000  Level Denver Center
Tue 05:17:37 PM 44.4853 -101.4636 66° East 498 573 37,000  Level Denver Center
Tue 05:18:13 PM 44.5183 -101.3586 66° East 498 573 37,000  Level Minneapolis Center
Tue 05:19:15 PM 44.5742 -101.1822 66° East 497 572 37,000  Level Minneapolis Center
Tue 05:20:17 PM 44.6411 -100.9725 66° East 495 570 37,000  Level Minneapolis Center
Tue 05:21:19 PM 44.6967 -100.7956 66° East 495 570 37,000  Level Minneapolis Center
Tue 05:22:21 PM 44.7503 -100.6189 67° East 494 568 37,000  Level Minneapolis Center
Tue 05:23:23 PM 44.8050 -100.4447 66° East 490 564 37,000  Level Minneapolis Center
Tue 05:24:26 PM 44.8569 -100.2722 67° East 484 557 37,000  Level Minneapolis Center
Tue 05:25:28 PM 44.9192 -100.0675 67° East 480 552 37,000  Level Minneapolis Center
Tue 05:26:30 PM 44.9689 -99.8969 68° East 487 560 37,000  Level Minneapolis Center
Tue 05:27:32 PM 45.0197 -99.7281 67° East 485 558 37,000  Level Minneapolis Center
Tue 05:28:34 PM 45.0714 -99.5586 67° East 480 552 37,000  Level Minneapolis Center
Tue 05:29:36 PM 45.1317 -99.3561 67° East 472 543 37,000  Level Minneapolis Center
Tue 05:30:38 PM 45.1828 -99.1875 67° East 469 540 37,000  Level Minneapolis Center
Tue 05:31:40 PM 45.2325 -99.0175 67° East 468 539 37,000  Level Minneapolis Center
Tue 05:32:42 PM 45.2817 -98.8458 68° East 470 541 37,000  Level Minneapolis Center
Tue 05:33:44 PM 45.3306 -98.6750 68° East 469 540 37,000 145 Level Minneapolis Center
Tue 05:34:46 PM 45.3794 -98.5033 68° East 470 541 37,300 624 Climbing Minneapolis Center
Tue 05:35:49 PM 45.4331 -98.2975 70° East 466 536 38,300 768 Climbing Minneapolis Center
Tue 05:36:51 PM 45.4606 -98.1175 78° East 465 535 38,900 339 Climbing Minneapolis Center
Tue 05:37:53 PM 45.4875 -97.9339 78° East 468 539 39,000 48 Climbing Minneapolis Center
Tue 05:38:55 PM 45.5147 -97.7533 78° East 469 540 39,000  Level Minneapolis Center
Tue 05:39:57 PM 45.5431 -97.5692 78° East 472 543 39,000  Level Minneapolis Center
Tue 05:40:59 PM 45.5714 -97.3867 77° East 473 544 39,000  Level Minneapolis Center
Tue 05:42:01 PM 45.6036 -97.1694 78° East 469 540 39,000  Level Minneapolis Center
Tue 05:43:03 PM 45.6297 -96.9906 78° East 466 536 39,000  Level Minneapolis Center
Tue 05:44:05 PM 45.6564 -96.8100 78° East 464 534 39,000  Level Minneapolis Center
Tue 05:45:07 PM 45.6833 -96.6289 78° East 466 536 39,000  Level Minneapolis Center
Tue 05:46:09 PM 45.7083 -96.4469 79° East 466 536 39,000  Level Minneapolis Center
Tue 05:47:11 PM 45.7247 -96.2631 83° East 468 539 39,000  Level Minneapolis Center
Tue 05:48:14 PM 45.7297 -96.0392 88° East 470 541 39,000  Level Minneapolis Center
Tue 05:49:16 PM 45.7333 -95.8503 88° East 473 544 39,000  Level Minneapolis Center
Tue 05:50:18 PM 45.7358 -95.6606 89° East 477 549 39,000  Level Minneapolis Center
Tue 05:51:20 PM 45.7403 -95.4708 88° East 478 550 39,000  Level Minneapolis Center
Tue 05:52:22 PM 45.7425 -95.2797 89° East 480 552 39,000  Level Minneapolis Center
Tue 05:53:24 PM 45.7453 -95.0869 89° East 484 557 39,000  Level Minneapolis Center
Tue 05:54:26 PM 45.7478 -94.8653 89° East 490 564 39,000  Level Minneapolis Center
Tue 05:59:36 PM 45.7540 -93.8540 89° East 475 547 39,000  Level FlightAware ADS-B
Tue 06:00:08 PM 45.7540 -93.7530 90° East 475 547 39,000  Level FlightAware ADS-B
Tue 06:00:55 PM 45.7540 -93.6090 90° East 475 547 39,000  Level FlightAware ADS-B
Tue 06:01:34 PM 45.7540 -93.4870 90° East 477 549 39,000  Level FlightAware ADS-B
Tue 06:02:18 PM 45.7540 -93.3470 90° East 479 551 39,000  Level FlightAware ADS-B
Tue 06:02:58 PM 45.7530 -93.2200 91° East 482 555 39,000  Level FlightAware ADS-B
Tue 06:03:56 PM 45.7520 -93.0330 90° East 486 559 39,000  Level FlightAware ADS-B
Tue 06:04:38 PM 45.7510 -92.8990 91° East 490 564 39,000  Level FlightAware ADS-B
Tue 06:05:18 PM 45.7510 -92.7690 90° East 493 567 39,000  Level FlightAware ADS-B
Tue 06:06:02 PM 45.7490 -92.6260 91° East 497 572 39,000  Level FlightAware ADS-B
Tue 06:06:42 PM 45.7480 -92.4930 91° East 502 578 39,000  Level FlightAware ADS-B
Tue 06:07:26 PM 45.7470 -92.3470 91° East 502 578 39,000  Level FlightAware ADS-B
Tue 06:08:08 PM 45.7450 -92.2090 91° East 497 572 39,000  Level FlightAware ADS-B
Tue 06:08:50 PM 45.7430 -92.0740 91° East 477 549 39,000  Level FlightAware ADS-B
Tue 06:09:30 PM 45.7420 -91.9510 91° East 472 543 39,000  Level FlightAware ADS-B
Tue 06:10:12 PM 45.7400 -91.8190 91° East 474 545 39,000  Level FlightAware ADS-B
Tue 06:10:56 PM 45.7370 -91.6810 92° East 476 548 39,000  Level FlightAware ADS-B
Tue 06:11:50 PM 45.7340 -91.5100 91° East 479 551 39,000  Level FlightAware ADS-B
Tue 06:12:34 PM 45.7320 -91.3730 91° East 480 552 39,000  Level FlightAware ADS-B
Tue 06:13:16 PM 45.7290 -91.2390 92° East 481 554 39,000  Level FlightAware ADS-B
Tue 06:13:56 PM 45.7260 -91.1130 92° East 481 554 39,000  Level FlightAware ADS-B
Tue 06:14:34 PM 45.7240 -90.9900 91° East 480 552 39,000  Level FlightAware ADS-B
Tue 06:16:32 PM 45.7140 -90.6170 92° East 485 558 39,000  Level FlightAware ADS-B
Tue 06:17:15 PM 45.7110 -90.4820 92° East 481 554 39,000  Level FlightAware ADS-B
Tue 06:17:58 PM 45.7070 -90.3450 92° East 480 552 39,000  Level FlightAware ADS-B
Tue 06:18:38 PM 45.7030 -90.2170 93° East 482 555 39,000  Level FlightAware ADS-B
Tue 06:19:15 PM 45.7000 -90.1090 92° East 485 558 39,000  Level FlightAware ADS-B
Tue 06:20:02 PM 45.6950 -89.9510 93° East 486 559 39,000  Level FlightAware ADS-B
Tue 06:20:46 PM 45.6900 -89.8060 93° East 487 560 39,000  Level FlightAware ADS-B
Tue 06:21:28 PM 45.6860 -89.6720 92° East 488 562 39,000  Level FlightAware ADS-B
Tue 06:22:04 PM 45.6820 -89.5540 93° East 489 563 39,000  Level FlightAware ADS-B
Tue 06:22:50 PM 45.6770 -89.4080 93° East 489 563 39,000  Level FlightAware ADS-B
Tue 06:23:33 PM 45.6720 -89.2760 93° East 481 554 39,000  Level FlightAware ADS-B
Tue 06:24:30 PM 45.6650 -89.1100 93° East 478 550 39,000  Level FlightAware ADS-B
Tue 06:25:09 PM 45.6600 -88.9690 93° East 477 549 39,000  Level FlightAware ADS-B
Tue 06:25:55 PM 45.6530 -88.8220 94° East 478 550 39,000  Level FlightAware ADS-B
Tue 06:26:33 PM 45.6490 -88.7060 93° East 479 551 39,000  Level FlightAware ADS-B
Tue 06:27:13 PM 45.6430 -88.5770 94° East 481 554 39,000  Level FlightAware ADS-B
Tue 06:27:59 PM 45.6370 -88.4330 93° East 481 554 39,000  Level FlightAware ADS-B
Tue 06:28:41 PM 45.6300 -88.2980 94° East 483 556 39,000  Level FlightAware ADS-B
Tue 06:29:17 PM 45.6250 -88.1860 94° East 483 556 39,000  Level FlightAware ADS-B
Tue 06:30:06 PM 45.6180 -88.0320 94° East 484 557 39,000  Level FlightAware ADS-B
Tue 06:30:46 PM 45.6120 -87.9240 95° East 484 557 39,000  Level FlightAware ADS-B
Tue 06:31:28 PM 45.6050 -87.7740 94° East 481 554 39,000  Level FlightAware ADS-B
Tue 06:32:06 PM 45.5980 -87.6490 95° East 478 550 39,000  Level FlightAware ADS-B
Tue 06:32:52 PM 45.5910 -87.5040 94° East 475 547 39,000  Level FlightAware ADS-B
Tue 06:33:35 PM 45.5840 -87.3760 94° East 472 543 39,000  Level FlightAware ADS-B
Tue 06:34:13 PM 45.5790 -87.2750 94° East 472 543 39,000  Level FlightAware ADS-B
Tue 06:34:59 PM 45.5730 -87.1530 94° East 472 543 39,000  Level FlightAware ADS-B
Tue 06:35:34 PM 45.5680 -87.0610 94° East 472 543 39,000  Level FlightAware ADS-B
Tue 06:36:22 PM 45.5620 -86.9340 94° East 472 543 39,000  Level FlightAware ADS-B
Tue 06:37:06 PM 45.5460 -86.7240 96° East 467 537 39,000  Level FlightAware ADS-B
Tue 06:37:45 PM 45.5390 -86.6080 95° East 468 539 39,000  Level FlightAware ADS-B
Tue 06:38:31 PM 45.5300 -86.4650 95° East 471 542 39,000  Level FlightAware ADS-B
Tue 06:39:11 PM 45.5220 -86.3390 95° East 474 545 39,000  Level FlightAware ADS-B
Tue 06:39:53 PM 45.5140 -86.2070 95° East 478 550 39,000  Level FlightAware ADS-B
Tue 06:40:35 PM 45.5050 -86.0750 96° East 481 554 39,000  Level FlightAware ADS-B
Tue 06:41:17 PM 45.4960 -85.9440 96° East 483 556 39,000  Level FlightAware ADS-B
Tue 06:42:01 PM 45.4870 -85.8040 95° East 485 558 39,000  Level FlightAware ADS-B
Tue 06:42:41 PM 45.4780 -85.6770 96° East 487 560 39,000  Level FlightAware ADS-B
Tue 06:43:25 PM 45.4680 -85.5370 96° East 488 562 39,000  Level FlightAware ADS-B
Tue 06:44:06 PM 45.4590 -85.4090 96° East 489 563 39,000  Level FlightAware ADS-B
Tue 06:44:49 PM 45.4490 -85.2710 96° East 490 564 39,000  Level FlightAware ADS-B
Tue 06:45:29 PM 45.4390 -85.1400 96° East 491 565 39,000  Level FlightAware ADS-B
Tue 06:46:11 PM 45.4290 -85.0090 96° East 492 566 39,000  Level FlightAware ADS-B
Tue 06:46:53 PM 45.4190 -84.8700 96° East 492 566 39,000  Level FlightAware ADS-B
Tue 06:47:37 PM 45.4080 -84.7310 96° East 491 565 39,000  Level FlightAware ADS-B
Tue 06:48:15 PM 45.3980 -84.6080 97° East 490 564 39,000  Level FlightAware ADS-B
Tue 06:48:59 PM 45.3870 -84.4680 96° East 488 562 39,000  Level FlightAware ADS-B
Tue 06:49:43 PM 45.3760 -84.3280 96° East 486 559 39,000  Level FlightAware ADS-B
Tue 06:50:25 PM 45.3640 -84.1940 97° East 483 556 39,000  Level FlightAware ADS-B
Tue 06:51:05 PM 45.3540 -84.0710 97° East 482 555 39,000  Level FlightAware ADS-B
Tue 06:51:45 PM 45.3440 -83.9450 96° East 481 554 39,000  Level FlightAware ADS-B
Tue 06:52:31 PM 45.3310 -83.7990 97° East 480 552 39,000  Level FlightAware ADS-B
Tue 06:53:11 PM 45.3200 -83.6780 97° East 478 550 39,000  Level FlightAware ADS-B
Tue 06:53:55 PM 45.3080 -83.5410 97° East 478 550 39,000  Level FlightAware ADS-B
Tue 06:54:37 PM 45.2970 -83.4100 97° East 477 549 39,000  Level FlightAware ADS-B
Tue 06:55:17 PM 45.2860 -83.2870 97° East 476 548 39,000  Level FlightAware ADS-B
Tue 06:55:59 PM 45.2730 -83.1550 98° East 476 548 39,000  Level FlightAware ADS-B
Tue 06:56:43 PM 45.2610 -83.0220 97° East 477 549 39,000  Level FlightAware ADS-B
Tue 06:57:23 PM 45.2490 -82.8960 98° East 476 548 39,000  Level FlightAware ADS-B
Tue 06:58:19 PM 45.2330 -82.7230 97° East 475 547 39,000  Level FlightAware ADS-B
Tue 06:59:01 PM 45.2200 -82.5930 98° East 475 547 39,000  Level FlightAware ADS-B
Tue 06:59:45 PM 45.2040 -82.4600 100° East 471 542 39,000  Level FlightAware ADS-B
Tue 07:00:25 PM 45.1800 -82.3430 106° East 468 539 39,000  Level FlightAware ADS-B
Tue 07:01:09 PM 45.1510 -82.2150 108° East 469 540 39,000  Level FlightAware ADS-B
Tue 07:01:46 PM 45.1260 -82.1040 108° East 468 539 39,000  Level FlightAware ADS-B
Tue 07:02:31 PM 45.0970 -81.9730 107° East 468 539 39,000  Level FlightAware ADS-B
Tue 07:03:13 PM 45.0690 -81.8520 108° East 467 537 39,000  Level FlightAware ADS-B
Tue 07:03:56 PM 45.0410 -81.7250 107° East 467 537 39,000  Level FlightAware ADS-B
Tue 07:04:41 PM 45.0120 -81.5990 108° East 466 536 39,000  Level FlightAware ADS-B
Tue 07:05:19 PM 44.9870 -81.4910 108° East 465 535 39,000  Level FlightAware ADS-B
Tue 07:05:57 PM 44.9670 -81.4010 107° East 465 535 39,000  Level FlightAware ADS-B
Tue 07:06:42 PM 44.9350 -81.2650 108° East 465 535 39,000  Level FlightAware ADS-B
Tue 07:07:28 PM 44.9050 -81.1370 108° East 464 534 39,000  Level FlightAware ADS-B
Tue 07:08:07 PM 44.8810 -81.0330 108° East 465 535 39,000  Level FlightAware ADS-B
Tue 07:08:45 PM 44.8540 -80.9180 108° East 464 534 39,000  Level FlightAware ADS-B
Tue 07:09:29 PM 44.8230 -80.7860 108° East 463 533 39,000  Level FlightAware ADS-B
Tue 07:10:08 PM 44.7980 -80.6800 108° East 463 533 39,000  Level FlightAware ADS-B
Tue 07:10:54 PM 44.7650 -80.5450 109° East 462 532 39,000  Level FlightAware ADS-B
Tue 07:11:29 PM 44.7380 -80.4340 109° East 461 531 39,000  Level FlightAware ADS-B
Tue 07:12:14 PM 44.7080 -80.3100 109° East 461 531 39,000  Level FlightAware ADS-B
Tue 07:12:54 PM 44.6810 -80.1970 109° East 460 529 39,000  Level FlightAware ADS-B
Tue 07:13:39 PM 44.6490 -80.0670 109° East 462 532 39,000  Level FlightAware ADS-B
Tue 07:14:19 PM 44.6210 -79.9540 109° East 461 531 39,000  Level FlightAware ADS-B
Tue 07:14:59 PM 44.5940 -79.8410 109° East 461 531 39,000  Level FlightAware ADS-B
Tue 07:15:44 PM 44.5620 -79.7180 110° East 462 532 39,000  Level FlightAware ADS-B
Tue 07:16:24 PM 44.5320 -79.6020 110° East 462 532 39,000  Level FlightAware ADS-B
Tue 07:17:04 PM 44.5050 -79.4990 110° East 463 533 39,000  Level FlightAware ADS-B
Tue 07:17:49 PM 44.4700 -79.3650 110° East 464 534 39,000  Level FlightAware ADS-B
Tue 07:18:34 PM 44.4360 -79.2390 111° Southeast 465 535 39,000  Level FlightAware ADS-B
Tue 07:19:14 PM 44.4060 -79.1270 111° Southeast 465 535 39,000  Level FlightAware ADS-B
Tue 07:19:54 PM 44.3770 -79.0160 110° East 465 535 39,000  Level FlightAware ADS-B
Tue 07:20:34 PM 44.3460 -78.9030 111° Southeast 465 535 39,000  Level FlightAware ADS-B
Tue 07:21:19 PM 44.3110 -78.7730 111° Southeast 466 536 39,000  Level FlightAware ADS-B
Tue 07:22:04 PM 44.2770 -78.6480 111° Southeast 467 537 39,000  Level FlightAware ADS-B
Tue 07:22:44 PM 44.2470 -78.5350 110° East 467 537 39,000  Level FlightAware ADS-B
Tue 07:23:24 PM 44.2170 -78.4270 111° Southeast 467 537 39,000  Level FlightAware ADS-B
Tue 07:24:09 PM 44.1820 -78.2980 111° Southeast 469 540 39,000  Level FlightAware ADS-B
Tue 07:24:49 PM 44.1510 -78.1870 111° Southeast 469 540 39,000  Level FlightAware ADS-B
Tue 07:25:34 PM 44.1150 -78.0570 111° Southeast 469 540 39,000  Level FlightAware ADS-B
Tue 07:26:14 PM 44.0840 -77.9490 112° Southeast 469 540 39,000  Level FlightAware ADS-B
Tue 07:26:54 PM 44.0520 -77.8330 111° Southeast 470 541 39,000  Level FlightAware ADS-B
Tue 07:27:39 PM 44.0160 -77.7070 112° Southeast 469 540 39,000  Level FlightAware ADS-B
Tue 07:28:19 PM 43.9850 -77.5950 111° Southeast 469 540 39,000  Level FlightAware ADS-B
Tue 07:28:59 PM 43.9560 -77.4930 112° Southeast 470 541 39,000  Level FlightAware ADS-B
Tue 07:29:44 PM 43.9170 -77.3580 112° Southeast 471 542 39,000  Level FlightAware ADS-B
Tue 07:30:25 PM 43.8860 -77.2480 111° Southeast 470 541 39,000  Level FlightAware ADS-B
Tue 07:31:09 PM 43.8490 -77.1230 112° Southeast 472 543 39,000  Level FlightAware ADS-B
Tue 07:31:49 PM 43.8160 -77.0070 111° Southeast 473 544 39,000  Level FlightAware ADS-B
Tue 07:32:34 PM 43.7800 -76.8840 112° Southeast 473 544 39,000  Level FlightAware ADS-B
Tue 07:33:14 PM 43.7460 -76.7700 112° Southeast 473 544 39,000  Level FlightAware ADS-B
Tue 07:33:55 PM 43.6960 -76.6730 125° Southeast 464 534 39,000  Level FlightAware ADS-B
Tue 07:34:39 PM 43.6260 -76.5790 136° Southeast 464 534 39,000 -71 Level FlightAware ADS-B
Tue 07:35:19 PM 43.5660 -76.4990 136° Southeast 461 531 38,900 -525 Descending FlightAware ADS-B
Tue 07:35:59 PM 43.5030 -76.4170 137° Southeast 460 529 38,300 -776 Descending FlightAware ADS-B
Tue 07:36:44 PM 43.4340 -76.3260 136° Southeast 456 525 37,800 -759 Descending FlightAware ADS-B
Tue 07:37:26 PM 43.3730 -76.2460 136° Southeast 455 524 37,200 -565 Descending FlightAware ADS-B
Tue 07:38:09 PM 43.3060 -76.1570 136° Southeast 456 525 37,000 -145 Descending FlightAware ADS-B
Tue 07:38:49 PM 43.2450 -76.0780 137° Southeast 461 531 37,000  Level FlightAware ADS-B
Tue 07:39:34 PM 43.1750 -75.9880 137° Southeast 463 533 37,000  Level FlightAware ADS-B
Tue 07:40:14 PM 43.1120 -75.9050 136° Southeast 463 533 37,000  Level FlightAware ADS-B
Tue 07:40:55 PM 43.0500 -75.8260 137° Southeast 462 532 37,000  Level FlightAware ADS-B
Tue 07:41:34 PM 42.9870 -75.7440 136° Southeast 462 532 37,000  Level FlightAware ADS-B
Tue 07:42:19 PM 42.9190 -75.6570 137° Southeast 461 531 37,000 -353 Level FlightAware ADS-B
Tue 07:42:59 PM 42.8570 -75.5770 137° Southeast 459 528 36,500 -1,271 Descending FlightAware ADS-B
Tue 07:43:44 PM 42.7860 -75.4870 137° Southeast 469 540 35,200 -1,906 Descending FlightAware ADS-B
Tue 07:44:24 PM 42.7240 -75.4080 137° Southeast 488 562 33,800 -1,617 Descending FlightAware ADS-B
Tue 07:46:05 PM 42.5500 -75.1880 137° Southeast 493 567 31,400 -1,120 Descending FlightAware ADS-B
Tue 07:46:54 PM 42.4670 -75.0820 137° Southeast 491 565 31,000 -286 Descending FlightAware ADS-B
Tue 07:47:29 PM 42.4170 -75.0200 138° Southeast 491 565 31,000  Level FlightAware ADS-B
Tue 07:48:18 PM 42.3310 -74.9130 137° Southeast 31,000  Level FlightAware ADS-B
Tue 07:48:58 PM 42.2600 -74.8240 137° Southeast 492 566 31,000  Level FlightAware ADS-B
Tue 07:49:38 PM 42.1920 -74.7400 138° Southeast 498 573 31,000  Level FlightAware ADS-B
Tue 07:50:16 PM 42.1243 -74.6557 137° Southeast 499 574 31,000 -1,021 Level FlightAware ADS-B
Tue 07:51:12 PM 42.0303 -74.5397 137° Southeast 497 572 29,400 -1,776 Descending FlightAware ADS-B
Tue 07:51:54 PM 41.9607 -74.4510 137° Southeast 492 566 28,100 -1,585 Descending FlightAware ADS-B
Tue 07:52:05 PM 41.9418 -74.4312 142° Southeast 489 563 28,000 -387 Descending FlightAware ADS-B
Tue 07:52:25 PM 41.9045 -74.3977 146° Southeast 483 556 27,900 -764 Descending FlightAware ADS-B
Tue 07:53:00 PM 41.8349 -74.3500 153° Southeast 476 548 27,300 -1,075 Descending FlightAware ADS-B
Tue 07:53:32 PM 41.7719 -74.3101 155° Southeast 470 541 26,700 -1,143 Descending FlightAware ADS-B
Tue 07:54:03 PM 41.7109 -74.2713 155° Southeast 467 537 26,100 -1,292 Descending FlightAware ADS-B
Tue 07:54:37 PM 41.6450 -74.2292 154° Southeast 466 536 25,300 -1,909 Descending FlightAware ADS-B
Tue 07:55:09 PM 41.5827 -74.1893 154° Southeast 463 533 24,000 -2,438 Descending FlightAware ADS-B
Tue 07:55:41 PM 41.5230 -74.1510 154° Southeast 454 522 22,700 -2,323 Descending FlightAware ADS-B
Tue 07:56:11 PM 41.4663 -74.1147 154° Southeast 445 512 21,600 -2,348 Descending FlightAware ADS-B
Tue 07:56:27 PM 41.4364 -74.0963 155° Southeast 439 505 20,900 -2,444 Descending FlightAware ADS-B
Tue 07:56:38 PM 41.4158 -74.0885 164° South 430 495 20,500 -1,286 Descending FlightAware ADS-B
Tue 07:57:09 PM 41.3555 -74.0804 174° South 422 486 20,000 -492 Descending FlightAware ADS-B
Tue 07:57:39 PM 41.2971 -74.0841 183° South 420 483 20,000  Level FlightAware ADS-B
Tue 07:58:11 PM 41.2342 -74.0927 186° South 417 480 20,000  Level FlightAware ADS-B
Tue 07:58:34 PM 41.1916 -74.0987 186° South 417 480 20,000  Level FlightAware ADS-B
Tue 07:58:47 PM 41.1664 -74.1022 186° South 423 487 20,000  Level FlightAware ADS-B
Tue 07:59:06 PM 41.1281 -74.1074 186° South 425 489 20,000  Level FlightAware ADS-B
Tue 07:59:17 PM 41.1068 -74.1103 186° South 424 488 20,000 -387 Level FlightAware ADS-B
Tue 07:59:37 PM 41.0686 -74.1153 186° South 417 480 19,800 -1,333 Descending FlightAware ADS-B
Tue 07:59:53 PM 41.0382 -74.1193 186° South 415 478 19,200 -1,600 Descending FlightAware ADS-B
Tue 08:00:07 PM 41.0104 -74.1229 186° South 406 467 19,000 -387 Descending FlightAware ADS-B
Tue 08:00:24 PM 40.9808 -74.1266 185° South 390 449 19,000  Level FlightAware ADS-B
Tue 08:00:33 PM 40.9650 -74.1284 185° South 377 434 19,000  Level FlightAware ADS-B
Tue 08:00:41 PM 40.9512 -74.1279 178° South 371 427 19,000  Level FlightAware ADS-B
Tue 08:00:47 PM 40.9413 -74.1262 173° South 388 447 19,000  Level FlightAware ADS-B
Tue 08:00:48 PM 40.9395 -74.1257 168° South 367 422 19,000  Level FlightAware ADS-B
Tue 08:00:51 PM 40.9344 -74.1242 167° South 366 421 19,000  Level FlightAware ADS-B
Tue 08:00:53 PM 40.9312 -74.1231 165° South 362 417 19,000 -774 Level FlightAware ADS-B
Tue 08:01:22 PM 40.8844 -74.1045 163° South 348 400 18,600 -800 Descending FlightAware ADS-B
Tue 08:01:23 PM 40.8830 -74.1039 162° South 348 400 18,600 -1,500 Level FlightAware ADS-B
Tue 08:01:54 PM 40.8363 -74.0844 162° South 344 396 17,800 -1,574 Descending FlightAware ADS-B
Tue 08:02:24 PM 40.7910 -74.0652 162° South 338 389 17,000 -1,700 Descending FlightAware ADS-B
Tue 08:02:54 PM 40.7461 -74.0472 163° South 336 387 16,100 -1,818 Descending FlightAware ADS-B
Tue 08:02:57 PM 40.7421 -74.0456 163° South 337 388 16,000 -2,229 Descending FlightAware ADS-B
Tue 08:03:29 PM 40.6943 -74.0270 164° South 333 383 14,800 -2,229 Descending FlightAware ADS-B
Tue 08:03:32 PM 40.6909 -74.0257 164° South 333 383 14,700 -2,323 Descending FlightAware ADS-B
Tue 08:04:00 PM 40.6497 -74.0098 164° South 327 376 13,600 -1,957 Descending FlightAware ADS-B
Tue 08:04:18 PM 40.6236 -73.9996 163° South 331 381 13,200 -1,000 Descending FlightAware ADS-B
Tue 08:04:30 PM 40.6052 -73.9925 164° South 323 372 13,100 -140 Descending FlightAware ADS-B
Tue 08:05:01 PM 40.5609 -73.9758 164° South 323 372 13,100 -689 Level FlightAware ADS-B
Tue 08:05:31 PM 40.5183 -73.9595 164° South 317 365 12,400 -1,831 Descending FlightAware ADS-B
Tue 08:06:00 PM 40.4786 -73.9448 164° South 313 360 11,300 -2,400 Descending FlightAware ADS-B
Tue 08:06:31 PM 40.4346 -73.9292 165° South 317 365 10,000 -2,478 Descending FlightAware ADS-B
Tue 08:06:46 PM 40.4132 -73.9215 165° South 318 366 9,400 -2,600 Descending FlightAware ADS-B
Tue 08:07:01 PM 40.3912 -73.9132 164° South 318 366 8,700 -2,516 Descending FlightAware ADS-B
Tue 08:07:17 PM 40.3693 -73.9041 162° South 319 367 8,100 -2,455 Descending FlightAware ADS-B
Tue 08:07:23 PM 40.3613 -73.8990 154° Southeast 321 369 7,800 -2,250 Descending FlightAware ADS-B
Tue 08:07:33 PM 40.3486 -73.8889 149° Southeast 320 368 7,500 -2,000 Descending FlightAware ADS-B
Tue 08:07:50 PM 40.3274 -73.8702 146° Southeast 319 367 6,900 -2,063 Descending FlightAware ADS-B
Tue 08:08:05 PM 40.3090 -73.8541 146° Southeast 318 366 6,400 -2,069 Descending FlightAware ADS-B
Tue 08:08:19 PM 40.2921 -73.8391 146° Southeast 314 361 5,900 -1,909 Descending FlightAware ADS-B
Tue 08:08:27 PM 40.2843 -73.8300 138° Southeast 313 360 5,700 -1,619 Descending FlightAware ADS-B
Tue 08:09:22 PM 40.2367 -73.7469 127° Southeast 310 357 4,200 -1,000 Descending FlightAware ADS-B
Tue 08:10:03 PM 40.2456 -73.6788 80° East 287 330 4,100 -105 Descending FlightAware ADS-B
Tue 08:10:19 PM 40.2616 -73.6616 39° Northeast 287 330 4,100  Level FlightAware ADS-B
Tue 08:10:47 PM 40.2904 -73.6341 36° Northeast 276 318 4,100  Level FlightAware ADS-B
Tue 08:11:07 PM 40.3116 -73.6140 36° Northeast 277 319 4,100  Level FlightAware ADS-B
Tue 08:11:21 PM 40.3261 -73.6014 34° Northeast 273 314 4,100  Level FlightAware ADS-B
Tue 08:11:27 PM 40.3330 -73.5974 24° Northeast 266 306 4,100  Level FlightAware ADS-B
Tue 08:11:55 PM 40.3663 -73.5846 16° North 262 302 4,100  Level FlightAware ADS-B
Tue 08:12:08 PM 40.3815 -73.5793 15° North 262 302 4,100  Level FlightAware ADS-B
Tue 08:12:18 PM 40.3931 -73.5740 19° North 267 307 4,100  Level FlightAware ADS-B
Tue 08:12:25 PM 40.4005 -73.5686 29° Northeast 271 312 4,100  Level FlightAware ADS-B
Tue 08:12:50 PM 40.4264 -73.5458 34° Northeast 275 316 4,100  Level FlightAware ADS-B
Tue 08:13:30 PM 40.4680 -73.5080 35° Northeast 277 319 4,100  Level FlightAware ADS-B
Tue 08:13:58 PM 40.4970 -73.4810 35° Northeast 277 319 4,100  Level FlightAware ADS-B
Tue 08:14:26 PM 40.5270 -73.4540 34° Northeast 274 315 4,100  Level FlightAware ADS-B
Tue 08:14:54 PM 40.5570 -73.4290 32° Northeast 275 316 4,100  Level FlightAware ADS-B
Tue 08:15:06 PM 40.5710 -73.4220 21° North 265 305 4,100  Level FlightAware ADS-B
Tue 08:15:24 PM 40.5930 -73.4190 North 256 295 4,100  Level FlightAware ADS-B
Tue 08:15:52 PM 40.6230 -73.4170 North 225 259 4,100  Level FlightAware ADS-B
Tue 08:16:13 PM 40.6440 -73.4160 North 215 247 4,100 -450 Level FlightAware ADS-B
Tue 08:16:32 PM 40.6640 -73.4140 North 214 246 3,800 -1,149 Descending FlightAware ADS-B
Tue 08:17:00 PM 40.6920 -73.4110 North 216 249 3,200 -778 Descending FlightAware ADS-B
Tue 08:17:26 PM 40.7160 -73.4090 North 213 245 3,100 -109 Descending FlightAware ADS-B
Tue 08:17:55 PM 40.7450 -73.4170 348° North 209 241 3,100  Level FlightAware ADS-B
Tue 08:18:11 PM 40.7600 -73.4230 343° North 208 239 3,100  Level FlightAware ADS-B
Tue 08:18:35 PM 40.7810 -73.4310 344° North 207 238 3,100  Level FlightAware ADS-B
Tue 08:18:53 PM 40.7990 -73.4380 344° North 205 236 3,100  Level FlightAware ADS-B
Tue 08:19:21 PM 40.8210 -73.4470 343° North 176 203 3,100  Level FlightAware ADS-B
Tue 08:19:33 PM 40.8300 -73.4550 326° Northwest 169 194 3,100  Level FlightAware ADS-B
Tue 08:20:01 PM 40.8430 -73.4750 311° West 165 190 3,100 -171 Level FlightAware ADS-B
Tue 08:20:43 PM 40.8380 -73.5170 261° West 170 196 2,900 -333 Descending FlightAware ADS-B
Tue 08:20:55 PM 40.8350 -73.5280 250° West 168 193 2,800 -750 Descending FlightAware ADS-B
Tue 08:21:23 PM 40.8270 -73.5560 249° West 166 191 2,400 -857 Descending FlightAware ADS-B
Tue 08:21:37 PM 40.8210 -73.5680 237° Southwest 168 193 2,200 -391 Descending FlightAware ADS-B
Tue 08:22:09 PM 40.8060 -73.5930 232° Southwest 170 196 2,100 -143 Descending FlightAware ADS-B
Tue 08:22:19 PM 40.8010 -73.6010 230° Southwest 170 196 2,100  Level FlightAware ADS-B

Login

Don't have an account? Register now (free) for customized features, flight alerts, and more!